sensor_id;sensor_type;location;lat;lon;timestamp;P1;durP1;ratioP1;P2;durP2;ratioP2
3066;SDS011;1544;48.834;9.194;2022-12-18T00:00:19;63.67;;;27.00;;
3066;SDS011;1544;48.834;9.194;2022-12-18T00:02:55;65.82;;;26.08;;
3066;SDS011;1544;48.834;9.194;2022-12-18T00:05:30;69.82;;;29.70;;
3066;SDS011;1544;48.834;9.194;2022-12-18T00:08:05;46.83;;;24.40;;
3066;SDS011;1544;48.834;9.194;2022-12-18T00:10:42;58.22;;;24.02;;
3066;SDS011;1544;48.834;9.194;2022-12-18T00:13:18;56.03;;;25.20;;
3066;SDS011;1544;48.834;9.194;2022-12-18T00:15:53;59.00;;;26.45;;
3066;SDS011;1544;48.834;9.194;2022-12-18T00:18:30;61.75;;;25.67;;
3066;SDS011;1544;48.834;9.194;2022-12-18T00:21:06;61.50;;;27.38;;
3066;SDS011;1544;48.834;9.194;2022-12-18T00:23:43;61.65;;;26.10;;
3066;SDS011;1544;48.834;9.194;2022-12-18T00:26:20;64.63;;;27.40;;
3066;SDS011;1544;48.834;9.194;2022-12-18T00:29:08;47.47;;;23.08;;
3066;SDS011;1544;48.834;9.194;2022-12-18T00:31:50;54.15;;;24.98;;
3066;SDS011;1544;48.834;9.194;2022-12-18T00:34:25;64.57;;;25.65;;
3066;SDS011;1544;48.834;9.194;2022-12-18T00:37:00;56.03;;;25.58;;
3066;SDS011;1544;48.834;9.194;2022-12-18T00:39:35;57.58;;;25.98;;
3066;SDS011;1544;48.834;9.194;2022-12-18T00:42:10;61.65;;;26.48;;
3066;SDS011;1544;48.834;9.194;2022-12-18T00:45:03;53.08;;;24.50;;
3066;SDS011;1544;48.834;9.194;2022-12-18T00:47:45;48.97;;;24.73;;
3066;SDS011;1544;48.834;9.194;2022-12-18T00:50:21;56.05;;;25.02;;
3066;SDS011;1544;48.834;9.194;2022-12-18T00:52:57;58.20;;;25.40;;
3066;SDS011;1544;48.834;9.194;2022-12-18T00:55:32;55.92;;;24.70;;
3066;SDS011;1544;48.834;9.194;2022-12-18T00:58:08;53.13;;;24.98;;
3066;SDS011;1544;48.834;9.194;2022-12-18T01:00:43;63.08;;;25.10;;
3066;SDS011;1544;48.834;9.194;2022-12-18T01:03:18;58.97;;;24.60;;
3066;SDS011;1544;48.834;9.194;2022-12-18T01:05:53;61.03;;;25.80;;
3066;SDS011;1544;48.834;9.194;2022-12-18T01:08:29;62.30;;;26.58;;
3066;SDS011;1544;48.834;9.194;2022-12-18T01:11:08;57.92;;;25.40;;
3066;SDS011;1544;48.834;9.194;2022-12-18T01:13:48;57.00;;;24.02;;
3066;SDS011;1544;48.834;9.194;2022-12-18T01:16:23;62.72;;;25.60;;
3066;SDS011;1544;48.834;9.194;2022-12-18T01:18:58;55.35;;;26.17;;
3066;SDS011;1544;48.834;9.194;2022-12-18T01:21:35;55.88;;;23.40;;
3066;SDS011;1544;48.834;9.194;2022-12-18T01:24:11;62.83;;;25.70;;
3066;SDS011;1544;48.834;9.194;2022-12-18T01:26:46;71.63;;;25.90;;
3066;SDS011;1544;48.834;9.194;2022-12-18T01:29:21;52.45;;;23.70;;
3066;SDS011;1544;48.834;9.194;2022-12-18T01:31:56;56.95;;;26.40;;
3066;SDS011;1544;48.834;9.194;2022-12-18T01:34:31;59.00;;;24.95;;
3066;SDS011;1544;48.834;9.194;2022-12-18T01:37:06;54.75;;;24.63;;
3066;SDS011;1544;48.834;9.194;2022-12-18T01:39:41;60.35;;;27.55;;
3066;SDS011;1544;48.834;9.194;2022-12-18T01:42:17;58.47;;;24.55;;
3066;SDS011;1544;48.834;9.194;2022-12-18T01:50:34;52.45;;;24.88;;
3066;SDS011;1544;48.834;9.194;2022-12-18T01:53:14;53.17;;;23.13;;
3066;SDS011;1544;48.834;9.194;2022-12-18T01:55:53;51.08;;;24.20;;
3066;SDS011;1544;48.834;9.194;2022-12-18T01:58:42;48.15;;;22.80;;
3066;SDS011;1544;48.834;9.194;2022-12-18T02:01:29;66.78;;;24.88;;
3066;SDS011;1544;48.834;9.194;2022-12-18T02:04:21;53.67;;;22.83;;
3066;SDS011;1544;48.834;9.194;2022-12-18T02:10:19;52.58;;;21.42;;
3066;SDS011;1544;48.834;9.194;2022-12-18T02:19:16;54.70;;;22.83;;
3066;SDS011;1544;48.834;9.194;2022-12-18T02:22:17;46.33;;;21.23;;
3066;SDS011;1544;48.834;9.194;2022-12-18T02:25:16;56.92;;;23.33;;
3066;SDS011;1544;48.834;9.194;2022-12-18T02:28:14;44.83;;;21.50;;
3066;SDS011;1544;48.834;9.194;2022-12-18T02:30:53;49.28;;;22.35;;
3066;SDS011;1544;48.834;9.194;2022-12-18T02:33:35;52.28;;;21.83;;
3066;SDS011;1544;48.834;9.194;2022-12-18T02:36:12;47.92;;;21.27;;
3066;SDS011;1544;48.834;9.194;2022-12-18T02:38:49;47.25;;;21.73;;
3066;SDS011;1544;48.834;9.194;2022-12-18T02:41:28;46.45;;;21.00;;
3066;SDS011;1544;48.834;9.194;2022-12-18T02:44:10;46.50;;;21.38;;
3066;SDS011;1544;48.834;9.194;2022-12-18T02:46:51;55.08;;;23.23;;
3066;SDS011;1544;48.834;9.194;2022-12-18T02:52:38;47.72;;;20.70;;
3066;SDS011;1544;48.834;9.194;2022-12-18T02:55:39;54.83;;;22.65;;
3066;SDS011;1544;48.834;9.194;2022-12-18T03:01:58;54.47;;;22.73;;
3066;SDS011;1544;48.834;9.194;2022-12-18T03:05:01;46.47;;;20.80;;
3066;SDS011;1544;48.834;9.194;2022-12-18T03:07:56;46.80;;;22.60;;
3066;SDS011;1544;48.834;9.194;2022-12-18T03:10:45;48.92;;;21.35;;
3066;SDS011;1544;48.834;9.194;2022-12-18T03:16:30;47.80;;;21.27;;
3066;SDS011;1544;48.834;9.194;2022-12-18T03:19:08;51.30;;;21.92;;
3066;SDS011;1544;48.834;9.194;2022-12-18T03:21:57;44.97;;;20.35;;
3066;SDS011;1544;48.834;9.194;2022-12-18T03:24:44;41.83;;;20.37;;
3066;SDS011;1544;48.834;9.194;2022-12-18T03:27:21;47.17;;;21.98;;
3066;SDS011;1544;48.834;9.194;2022-12-18T03:30:06;41.75;;;21.35;;
3066;SDS011;1544;48.834;9.194;2022-12-18T03:32:53;39.05;;;20.27;;
3066;SDS011;1544;48.834;9.194;2022-12-18T03:35:40;42.70;;;21.00;;
3066;SDS011;1544;48.834;9.194;2022-12-18T03:38:18;40.15;;;19.48;;
3066;SDS011;1544;48.834;9.194;2022-12-18T03:40:59;49.78;;;21.33;;
3066;SDS011;1544;48.834;9.194;2022-12-18T03:44:31;44.03;;;20.65;;
3066;SDS011;1544;48.834;9.194;2022-12-18T03:50:49;38.80;;;17.85;;
3066;SDS011;1544;48.834;9.194;2022-12-18T03:56:34;41.05;;;20.00;;
3066;SDS011;1544;48.834;9.194;2022-12-18T03:59:17;44.88;;;20.23;;
3066;SDS011;1544;48.834;9.194;2022-12-18T04:01:53;47.90;;;20.58;;
3066;SDS011;1544;48.834;9.194;2022-12-18T04:04:34;45.00;;;20.70;;
3066;SDS011;1544;48.834;9.194;2022-12-18T04:07:11;51.35;;;20.02;;
3066;SDS011;1544;48.834;9.194;2022-12-18T04:09:51;39.05;;;18.63;;
3066;SDS011;1544;48.834;9.194;2022-12-18T04:12:31;43.22;;;19.52;;
3066;SDS011;1544;48.834;9.194;2022-12-18T04:15:07;45.17;;;20.88;;
3066;SDS011;1544;48.834;9.194;2022-12-18T04:17:49;52.63;;;21.58;;
3066;SDS011;1544;48.834;9.194;2022-12-18T04:20:28;44.67;;;19.33;;
3066;SDS011;1544;48.834;9.194;2022-12-18T04:23:03;48.08;;;20.75;;
3066;SDS011;1544;48.834;9.194;2022-12-18T04:25:39;43.28;;;19.60;;
3066;SDS011;1544;48.834;9.194;2022-12-18T04:28:21;42.63;;;19.85;;
3066;SDS011;1544;48.834;9.194;2022-12-18T04:30:57;45.60;;;20.10;;
3066;SDS011;1544;48.834;9.194;2022-12-18T04:33:32;42.72;;;19.70;;
3066;SDS011;1544;48.834;9.194;2022-12-18T04:36:07;48.90;;;20.15;;
3066;SDS011;1544;48.834;9.194;2022-12-18T04:38:42;43.47;;;19.73;;
3066;SDS011;1544;48.834;9.194;2022-12-18T04:41:20;46.70;;;20.35;;
3066;SDS011;1544;48.834;9.194;2022-12-18T04:43:56;41.00;;;19.65;;
3066;SDS011;1544;48.834;9.194;2022-12-18T04:46:31;38.72;;;18.70;;
3066;SDS011;1544;48.834;9.194;2022-12-18T04:49:06;40.28;;;18.92;;
3066;SDS011;1544;48.834;9.194;2022-12-18T04:51:41;42.40;;;20.08;;
3066;SDS011;1544;48.834;9.194;2022-12-18T04:54:16;43.65;;;18.45;;
3066;SDS011;1544;48.834;9.194;2022-12-18T04:56:51;43.83;;;19.63;;
3066;SDS011;1544;48.834;9.194;2022-12-18T04:59:26;46.90;;;20.95;;
3066;SDS011;1544;48.834;9.194;2022-12-18T05:02:01;49.13;;;21.27;;
3066;SDS011;1544;48.834;9.194;2022-12-18T05:04:36;50.00;;;19.67;;
3066;SDS011;1544;48.834;9.194;2022-12-18T05:07:11;52.03;;;19.05;;
3066;SDS011;1544;48.834;9.194;2022-12-18T05:09:46;44.60;;;20.50;;
3066;SDS011;1544;48.834;9.194;2022-12-18T05:12:21;42.92;;;19.63;;
3066;SDS011;1544;48.834;9.194;2022-12-18T05:14:57;45.40;;;21.52;;
3066;SDS011;1544;48.834;9.194;2022-12-18T05:17:32;41.38;;;17.30;;
3066;SDS011;1544;48.834;9.194;2022-12-18T05:20:07;39.78;;;17.05;;
3066;SDS011;1544;48.834;9.194;2022-12-18T05:22:43;42.00;;;19.10;;
3066;SDS011;1544;48.834;9.194;2022-12-18T05:25:18;46.25;;;20.17;;
3066;SDS011;1544;48.834;9.194;2022-12-18T05:27:53;46.00;;;19.90;;
3066;SDS011;1544;48.834;9.194;2022-12-18T05:30:28;43.28;;;18.92;;
3066;SDS011;1544;48.834;9.194;2022-12-18T05:33:03;41.63;;;18.63;;
3066;SDS011;1544;48.834;9.194;2022-12-18T05:35:38;43.25;;;19.52;;
3066;SDS011;1544;48.834;9.194;2022-12-18T05:38:13;35.90;;;17.92;;
3066;SDS011;1544;48.834;9.194;2022-12-18T05:40:48;50.78;;;20.25;;
3066;SDS011;1544;48.834;9.194;2022-12-18T05:43:25;42.08;;;18.85;;
3066;SDS011;1544;48.834;9.194;2022-12-18T05:46:04;42.70;;;18.20;;
3066;SDS011;1544;48.834;9.194;2022-12-18T05:48:42;39.33;;;18.70;;
3066;SDS011;1544;48.834;9.194;2022-12-18T05:51:19;36.05;;;17.30;;
3066;SDS011;1544;48.834;9.194;2022-12-18T05:53:56;38.63;;;16.80;;
3066;SDS011;1544;48.834;9.194;2022-12-18T05:56:31;45.10;;;18.70;;
3066;SDS011;1544;48.834;9.194;2022-12-18T05:59:06;34.63;;;16.83;;
3066;SDS011;1544;48.834;9.194;2022-12-18T06:01:41;44.30;;;18.38;;
3066;SDS011;1544;48.834;9.194;2022-12-18T06:04:17;39.40;;;16.95;;
3066;SDS011;1544;48.834;9.194;2022-12-18T06:06:52;37.20;;;17.83;;
3066;SDS011;1544;48.834;9.194;2022-12-18T06:09:28;40.85;;;17.60;;
3066;SDS011;1544;48.834;9.194;2022-12-18T06:12:03;36.15;;;17.40;;
3066;SDS011;1544;48.834;9.194;2022-12-18T06:14:38;41.10;;;18.65;;
3066;SDS011;1544;48.834;9.194;2022-12-18T06:17:13;38.45;;;16.63;;
3066;SDS011;1544;48.834;9.194;2022-12-18T06:19:48;37.78;;;17.67;;
3066;SDS011;1544;48.834;9.194;2022-12-18T06:22:23;37.88;;;17.23;;
3066;SDS011;1544;48.834;9.194;2022-12-18T06:24:59;39.60;;;19.17;;
3066;SDS011;1544;48.834;9.194;2022-12-18T06:27:34;42.65;;;16.65;;
3066;SDS011;1544;48.834;9.194;2022-12-18T06:30:09;38.72;;;17.00;;
3066;SDS011;1544;48.834;9.194;2022-12-18T06:32:46;36.70;;;16.55;;
3066;SDS011;1544;48.834;9.194;2022-12-18T06:35:29;40.58;;;17.45;;
3066;SDS011;1544;48.834;9.194;2022-12-18T06:38:06;36.75;;;16.58;;
3066;SDS011;1544;48.834;9.194;2022-12-18T06:40:41;38.20;;;16.42;;
3066;SDS011;1544;48.834;9.194;2022-12-18T06:43:16;43.90;;;18.35;;
3066;SDS011;1544;48.834;9.194;2022-12-18T06:45:57;32.17;;;16.77;;
3066;SDS011;1544;48.834;9.194;2022-12-18T06:48:34;33.75;;;16.58;;
3066;SDS011;1544;48.834;9.194;2022-12-18T06:51:10;39.90;;;16.92;;
3066;SDS011;1544;48.834;9.194;2022-12-18T06:53:45;34.00;;;15.68;;
3066;SDS011;1544;48.834;9.194;2022-12-18T06:56:20;32.00;;;16.35;;
3066;SDS011;1544;48.834;9.194;2022-12-18T06:58:55;33.70;;;16.63;;
3066;SDS011;1544;48.834;9.194;2022-12-18T07:01:30;37.92;;;16.10;;
3066;SDS011;1544;48.834;9.194;2022-12-18T07:04:05;34.97;;;15.80;;
3066;SDS011;1544;48.834;9.194;2022-12-18T07:06:40;37.03;;;17.25;;
3066;SDS011;1544;48.834;9.194;2022-12-18T07:09:15;36.28;;;15.45;;
3066;SDS011;1544;48.834;9.194;2022-12-18T07:11:50;36.15;;;16.33;;
3066;SDS011;1544;48.834;9.194;2022-12-18T07:14:25;37.08;;;16.23;;
3066;SDS011;1544;48.834;9.194;2022-12-18T07:17:00;38.55;;;15.30;;
3066;SDS011;1544;48.834;9.194;2022-12-18T07:19:35;30.40;;;14.70;;
3066;SDS011;1544;48.834;9.194;2022-12-18T07:22:10;35.13;;;16.02;;
3066;SDS011;1544;48.834;9.194;2022-12-18T07:24:45;31.65;;;16.23;;
3066;SDS011;1544;48.834;9.194;2022-12-18T07:27:20;34.08;;;14.68;;
3066;SDS011;1544;48.834;9.194;2022-12-18T07:29:56;29.23;;;14.20;;
3066;SDS011;1544;48.834;9.194;2022-12-18T07:32:31;37.75;;;15.45;;
3066;SDS011;1544;48.834;9.194;2022-12-18T07:35:06;34.88;;;15.38;;
3066;SDS011;1544;48.834;9.194;2022-12-18T07:37:41;33.30;;;15.55;;
3066;SDS011;1544;48.834;9.194;2022-12-18T07:40:16;36.45;;;16.02;;
3066;SDS011;1544;48.834;9.194;2022-12-18T07:42:51;37.42;;;16.10;;
3066;SDS011;1544;48.834;9.194;2022-12-18T07:45:26;29.13;;;15.50;;
3066;SDS011;1544;48.834;9.194;2022-12-18T07:48:01;38.63;;;16.90;;
3066;SDS011;1544;48.834;9.194;2022-12-18T07:50:36;34.65;;;16.50;;
3066;SDS011;1544;48.834;9.194;2022-12-18T07:53:11;32.15;;;15.57;;
3066;SDS011;1544;48.834;9.194;2022-12-18T07:55:46;37.58;;;16.42;;
3066;SDS011;1544;48.834;9.194;2022-12-18T07:58:41;32.03;;;16.30;;
3066;SDS011;1544;48.834;9.194;2022-12-18T08:01:18;38.65;;;16.38;;
3066;SDS011;1544;48.834;9.194;2022-12-18T08:03:54;36.03;;;15.80;;
3066;SDS011;1544;48.834;9.194;2022-12-18T08:06:30;31.33;;;15.35;;
3066;SDS011;1544;48.834;9.194;2022-12-18T08:09:05;37.67;;;16.85;;
3066;SDS011;1544;48.834;9.194;2022-12-18T08:11:40;36.90;;;16.08;;
3066;SDS011;1544;48.834;9.194;2022-12-18T08:14:15;38.03;;;16.77;;
3066;SDS011;1544;48.834;9.194;2022-12-18T08:16:50;39.03;;;17.20;;
3066;SDS011;1544;48.834;9.194;2022-12-18T08:19:25;36.50;;;18.05;;
3066;SDS011;1544;48.834;9.194;2022-12-18T08:21:59;38.28;;;17.20;;
3066;SDS011;1544;48.834;9.194;2022-12-18T08:24:34;32.72;;;16.00;;
3066;SDS011;1544;48.834;9.194;2022-12-18T08:27:09;41.05;;;18.25;;
3066;SDS011;1544;48.834;9.194;2022-12-18T08:30:03;42.15;;;18.40;;
3066;SDS011;1544;48.834;9.194;2022-12-18T08:32:40;35.42;;;15.93;;
3066;SDS011;1544;48.834;9.194;2022-12-18T08:35:15;32.35;;;15.70;;
3066;SDS011;1544;48.834;9.194;2022-12-18T08:37:52;40.10;;;17.90;;
3066;SDS011;1544;48.834;9.194;2022-12-18T08:40:27;37.45;;;18.90;;
3066;SDS011;1544;48.834;9.194;2022-12-18T08:43:02;34.90;;;18.02;;
3066;SDS011;1544;48.834;9.194;2022-12-18T08:45:55;41.65;;;18.55;;
3066;SDS011;1544;48.834;9.194;2022-12-18T08:48:31;35.05;;;17.40;;
3066;SDS011;1544;48.834;9.194;2022-12-18T08:51:06;38.08;;;18.98;;
3066;SDS011;1544;48.834;9.194;2022-12-18T08:53:41;36.55;;;18.05;;
3066;SDS011;1544;48.834;9.194;2022-12-18T08:56:17;44.78;;;19.27;;
3066;SDS011;1544;48.834;9.194;2022-12-18T08:58:52;36.60;;;17.73;;
3066;SDS011;1544;48.834;9.194;2022-12-18T09:01:28;43.40;;;18.23;;
3066;SDS011;1544;48.834;9.194;2022-12-18T09:04:04;43.88;;;17.95;;
3066;SDS011;1544;48.834;9.194;2022-12-18T09:06:41;33.25;;;17.67;;
3066;SDS011;1544;48.834;9.194;2022-12-18T09:09:16;38.55;;;18.35;;
3066;SDS011;1544;48.834;9.194;2022-12-18T09:11:51;40.20;;;18.58;;
3066;SDS011;1544;48.834;9.194;2022-12-18T09:14:26;39.33;;;18.00;;
3066;SDS011;1544;48.834;9.194;2022-12-18T09:17:01;46.85;;;20.63;;
3066;SDS011;1544;48.834;9.194;2022-12-18T09:19:36;36.83;;;18.90;;
3066;SDS011;1544;48.834;9.194;2022-12-18T09:22:11;35.60;;;18.05;;
3066;SDS011;1544;48.834;9.194;2022-12-18T09:24:46;45.72;;;19.08;;
3066;SDS011;1544;48.834;9.194;2022-12-18T09:27:22;34.47;;;17.17;;
3066;SDS011;1544;48.834;9.194;2022-12-18T09:29:57;35.50;;;19.05;;
3066;SDS011;1544;48.834;9.194;2022-12-18T09:32:32;45.50;;;21.17;;
3066;SDS011;1544;48.834;9.194;2022-12-18T09:35:07;38.85;;;17.88;;
3066;SDS011;1544;48.834;9.194;2022-12-18T09:37:42;44.20;;;18.45;;
3066;SDS011;1544;48.834;9.194;2022-12-18T09:40:19;44.15;;;18.98;;
3066;SDS011;1544;48.834;9.194;2022-12-18T09:42:59;40.60;;;20.67;;
3066;SDS011;1544;48.834;9.194;2022-12-18T09:45:45;42.55;;;18.33;;
3066;SDS011;1544;48.834;9.194;2022-12-18T09:48:46;40.30;;;20.17;;
3066;SDS011;1544;48.834;9.194;2022-12-18T09:51:29;44.63;;;20.38;;
3066;SDS011;1544;48.834;9.194;2022-12-18T09:54:18;41.42;;;19.98;;
3066;SDS011;1544;48.834;9.194;2022-12-18T09:57:01;41.95;;;21.40;;
3066;SDS011;1544;48.834;9.194;2022-12-18T09:59:38;49.60;;;20.90;;
3066;SDS011;1544;48.834;9.194;2022-12-18T10:02:15;47.83;;;19.73;;
3066;SDS011;1544;48.834;9.194;2022-12-18T10:05:06;37.90;;;20.38;;
3066;SDS011;1544;48.834;9.194;2022-12-18T10:07:53;43.70;;;19.38;;
3066;SDS011;1544;48.834;9.194;2022-12-18T10:10:57;42.22;;;18.50;;
3066;SDS011;1544;48.834;9.194;2022-12-18T10:17:22;42.67;;;18.77;;
3066;SDS011;1544;48.834;9.194;2022-12-18T10:23:19;39.75;;;17.40;;
3066;SDS011;1544;48.834;9.194;2022-12-18T10:26:33;34.83;;;17.10;;
3066;SDS011;1544;48.834;9.194;2022-12-18T10:29:12;42.42;;;20.27;;
3066;SDS011;1544;48.834;9.194;2022-12-18T10:31:50;33.13;;;17.90;;
3066;SDS011;1544;48.834;9.194;2022-12-18T10:34:27;31.08;;;16.27;;
3066;SDS011;1544;48.834;9.194;2022-12-18T10:37:03;35.78;;;16.85;;
3066;SDS011;1544;48.834;9.194;2022-12-18T10:43:09;41.13;;;18.48;;
3066;SDS011;1544;48.834;9.194;2022-12-18T10:51:29;34.05;;;16.60;;
3066;SDS011;1544;48.834;9.194;2022-12-18T10:54:14;33.13;;;16.38;;
3066;SDS011;1544;48.834;9.194;2022-12-18T10:56:53;32.10;;;15.93;;
3066;SDS011;1544;48.834;9.194;2022-12-18T10:59:52;34.95;;;17.73;;
3066;SDS011;1544;48.834;9.194;2022-12-18T11:02:36;33.75;;;17.08;;
3066;SDS011;1544;48.834;9.194;2022-12-18T11:08:11;35.50;;;16.00;;
3066;SDS011;1544;48.834;9.194;2022-12-18T11:10:58;32.60;;;17.10;;
3066;SDS011;1544;48.834;9.194;2022-12-18T11:13:33;32.67;;;17.13;;
3066;SDS011;1544;48.834;9.194;2022-12-18T11:16:17;31.60;;;17.50;;
3066;SDS011;1544;48.834;9.194;2022-12-18T11:18:55;25.63;;;14.48;;
3066;SDS011;1544;48.834;9.194;2022-12-18T11:21:56;25.95;;;15.18;;
3066;SDS011;1544;48.834;9.194;2022-12-18T11:24:32;33.45;;;16.83;;
3066;SDS011;1544;48.834;9.194;2022-12-18T11:27:17;36.03;;;17.80;;
3066;SDS011;1544;48.834;9.194;2022-12-18T11:30:06;33.97;;;18.20;;
3066;SDS011;1544;48.834;9.194;2022-12-18T11:32:48;31.80;;;17.77;;
3066;SDS011;1544;48.834;9.194;2022-12-18T11:38:26;42.10;;;21.20;;
3066;SDS011;1544;48.834;9.194;2022-12-18T11:41:21;28.27;;;16.30;;
3066;SDS011;1544;48.834;9.194;2022-12-18T11:44:29;36.87;;;19.87;;
3066;SDS011;1544;48.834;9.194;2022-12-18T11:47:24;36.67;;;18.00;;
3066;SDS011;1544;48.834;9.194;2022-12-18T11:51:05;34.37;;;17.70;;
3066;SDS011;1544;48.834;9.194;2022-12-18T11:53:25;29.27;;;17.50;;
3066;SDS011;1544;48.834;9.194;2022-12-18T11:59:14;30.70;;;17.90;;
3066;SDS011;1544;48.834;9.194;2022-12-18T12:11:00;34.17;;;19.17;;
3066;SDS011;1544;48.834;9.194;2022-12-18T12:20:17;34.13;;;18.90;;
3066;SDS011;1544;48.834;9.194;2022-12-18T12:23:14;34.83;;;18.73;;
3066;SDS011;1544;48.834;9.194;2022-12-18T12:32:36;31.00;;;19.57;;
3066;SDS011;1544;48.834;9.194;2022-12-18T12:38:28;37.03;;;20.07;;
3066;SDS011;1544;48.834;9.194;2022-12-18T12:41:27;35.73;;;20.00;;
3066;SDS011;1544;48.834;9.194;2022-12-18T12:44:26;39.17;;;19.37;;
3066;SDS011;1544;48.834;9.194;2022-12-18T12:47:11;37.33;;;21.47;;
3066;SDS011;1544;48.834;9.194;2022-12-18T12:50:02;37.23;;;19.90;;
3066;SDS011;1544;48.834;9.194;2022-12-18T12:52:45;35.67;;;20.60;;
3066;SDS011;1544;48.834;9.194;2022-12-18T12:55:26;34.40;;;20.47;;
3066;SDS011;1544;48.834;9.194;2022-12-18T13:01:08;36.57;;;20.30;;
3066;SDS011;1544;48.834;9.194;2022-12-18T13:13:04;37.33;;;18.00;;
3066;SDS011;1544;48.834;9.194;2022-12-18T13:15:44;36.87;;;19.50;;
3066;SDS011;1544;48.834;9.194;2022-12-18T13:18:22;33.53;;;17.57;;
3066;SDS011;1544;48.834;9.194;2022-12-18T13:23:37;34.30;;;18.40;;
3066;SDS011;1544;48.834;9.194;2022-12-18T13:28:51;32.93;;;18.83;;
3066;SDS011;1544;48.834;9.194;2022-12-18T13:40:50;31.20;;;17.60;;
3066;SDS011;1544;48.834;9.194;2022-12-18T13:46:19;31.63;;;19.07;;
3066;SDS011;1544;48.834;9.194;2022-12-18T13:49:14;33.40;;;18.23;;
3066;SDS011;1544;48.834;9.194;2022-12-18T13:51:58;33.37;;;18.40;;
3066;SDS011;1544;48.834;9.194;2022-12-18T13:54:37;27.83;;;16.63;;
3066;SDS011;1544;48.834;9.194;2022-12-18T13:57:25;37.90;;;18.57;;
3066;SDS011;1544;48.834;9.194;2022-12-18T14:03:15;37.47;;;19.60;;
3066;SDS011;1544;48.834;9.194;2022-12-18T14:06:05;36.20;;;20.20;;
3066;SDS011;1544;48.834;9.194;2022-12-18T14:08:43;31.93;;;18.27;;
3066;SDS011;1544;48.834;9.194;2022-12-18T14:11:19;37.87;;;19.00;;
3066;SDS011;1544;48.834;9.194;2022-12-18T14:13:59;34.07;;;18.00;;
3066;SDS011;1544;48.834;9.194;2022-12-18T14:16:35;29.73;;;19.13;;
3066;SDS011;1544;48.834;9.194;2022-12-18T14:19:12;34.27;;;18.00;;
3066;SDS011;1544;48.834;9.194;2022-12-18T14:21:50;34.83;;;18.40;;
3066;SDS011;1544;48.834;9.194;2022-12-18T14:24:25;35.40;;;18.47;;
3066;SDS011;1544;48.834;9.194;2022-12-18T14:27:12;35.67;;;19.07;;
3066;SDS011;1544;48.834;9.194;2022-12-18T14:29:59;34.80;;;19.37;;
3066;SDS011;1544;48.834;9.194;2022-12-18T14:32:34;40.67;;;21.47;;
3066;SDS011;1544;48.834;9.194;2022-12-18T14:35:12;38.47;;;20.27;;
3066;SDS011;1544;48.834;9.194;2022-12-18T14:37:47;35.23;;;19.00;;
3066;SDS011;1544;48.834;9.194;2022-12-18T14:40:23;43.03;;;23.37;;
3066;SDS011;1544;48.834;9.194;2022-12-18T14:42:58;36.60;;;21.30;;
3066;SDS011;1544;48.834;9.194;2022-12-18T14:48:18;41.87;;;21.37;;
3066;SDS011;1544;48.834;9.194;2022-12-18T14:51:06;37.07;;;21.50;;
3066;SDS011;1544;48.834;9.194;2022-12-18T14:53:56;42.33;;;22.67;;
3066;SDS011;1544;48.834;9.194;2022-12-18T14:56:46;38.50;;;20.75;;
3066;SDS011;1544;48.834;9.194;2022-12-18T14:59:25;42.00;;;21.23;;
3066;SDS011;1544;48.834;9.194;2022-12-18T15:02:15;44.80;;;23.20;;
3066;SDS011;1544;48.834;9.194;2022-12-18T15:05:01;42.03;;;23.10;;
3066;SDS011;1544;48.834;9.194;2022-12-18T15:07:54;41.50;;;21.77;;
3066;SDS011;1544;48.834;9.194;2022-12-18T15:10:32;44.40;;;22.80;;
3066;SDS011;1544;48.834;9.194;2022-12-18T15:13:15;42.17;;;23.43;;
3066;SDS011;1544;48.834;9.194;2022-12-18T15:15:57;36.35;;;21.77;;
3066;SDS011;1544;48.834;9.194;2022-12-18T15:18:38;45.67;;;23.20;;
3066;SDS011;1544;48.834;9.194;2022-12-18T15:21:18;44.13;;;22.92;;
3066;SDS011;1544;48.834;9.194;2022-12-18T15:23:54;43.67;;;22.00;;
3066;SDS011;1544;48.834;9.194;2022-12-18T15:26:30;41.13;;;22.27;;
3066;SDS011;1544;48.834;9.194;2022-12-18T15:29:17;44.78;;;23.42;;
3066;SDS011;1544;48.834;9.194;2022-12-18T15:32:03;40.20;;;21.77;;
3066;SDS011;1544;48.834;9.194;2022-12-18T15:34:44;43.70;;;21.80;;
3066;SDS011;1544;48.834;9.194;2022-12-18T15:37:19;40.40;;;21.60;;
3066;SDS011;1544;48.834;9.194;2022-12-18T15:39:54;44.28;;;22.92;;
3066;SDS011;1544;48.834;9.194;2022-12-18T15:42:30;44.33;;;24.85;;
3066;SDS011;1544;48.834;9.194;2022-12-18T15:45:23;44.78;;;21.45;;
3066;SDS011;1544;48.834;9.194;2022-12-18T15:47:59;46.35;;;23.40;;
3066;SDS011;1544;48.834;9.194;2022-12-18T15:50:34;43.97;;;22.77;;
3066;SDS011;1544;48.834;9.194;2022-12-18T15:53:09;49.03;;;25.40;;
3066;SDS011;1544;48.834;9.194;2022-12-18T15:55:44;51.08;;;24.88;;
3066;SDS011;1544;48.834;9.194;2022-12-18T15:58:38;41.22;;;21.60;;
3066;SDS011;1544;48.834;9.194;2022-12-18T16:01:15;41.50;;;22.45;;
3066;SDS011;1544;48.834;9.194;2022-12-18T16:03:53;42.63;;;23.45;;
3066;SDS011;1544;48.834;9.194;2022-12-18T16:06:29;51.83;;;24.60;;
3066;SDS011;1544;48.834;9.194;2022-12-18T16:09:24;47.53;;;22.80;;
3066;SDS011;1544;48.834;9.194;2022-12-18T16:11:59;44.90;;;23.35;;
3066;SDS011;1544;48.834;9.194;2022-12-18T16:14:35;43.28;;;22.42;;
3066;SDS011;1544;48.834;9.194;2022-12-18T16:17:10;42.67;;;22.83;;
3066;SDS011;1544;48.834;9.194;2022-12-18T16:19:46;44.08;;;21.08;;
3066;SDS011;1544;48.834;9.194;2022-12-18T16:22:24;42.50;;;23.70;;
3066;SDS011;1544;48.834;9.194;2022-12-18T16:25:03;42.72;;;21.85;;
3066;SDS011;1544;48.834;9.194;2022-12-18T16:27:39;43.55;;;23.15;;
3066;SDS011;1544;48.834;9.194;2022-12-18T16:30:15;51.05;;;23.25;;
3066;SDS011;1544;48.834;9.194;2022-12-18T16:32:53;45.15;;;23.13;;
3066;SDS011;1544;48.834;9.194;2022-12-18T16:35:29;44.83;;;23.13;;
3066;SDS011;1544;48.834;9.194;2022-12-18T16:38:03;47.35;;;23.17;;
3066;SDS011;1544;48.834;9.194;2022-12-18T16:40:38;47.05;;;24.75;;
3066;SDS011;1544;48.834;9.194;2022-12-18T16:43:35;49.13;;;23.80;;
3066;SDS011;1544;48.834;9.194;2022-12-18T16:46:10;43.92;;;22.90;;
3066;SDS011;1544;48.834;9.194;2022-12-18T16:48:45;48.97;;;23.92;;
3066;SDS011;1544;48.834;9.194;2022-12-18T16:51:20;43.90;;;22.50;;
3066;SDS011;1544;48.834;9.194;2022-12-18T16:53:55;45.53;;;23.63;;
3066;SDS011;1544;48.834;9.194;2022-12-18T16:56:31;49.08;;;24.00;;
3066;SDS011;1544;48.834;9.194;2022-12-18T16:59:06;40.10;;;23.10;;
3066;SDS011;1544;48.834;9.194;2022-12-18T17:01:43;43.70;;;23.00;;
3066;SDS011;1544;48.834;9.194;2022-12-18T17:04:18;46.70;;;23.38;;
3066;SDS011;1544;48.834;9.194;2022-12-18T17:06:53;42.95;;;23.65;;
3066;SDS011;1544;48.834;9.194;2022-12-18T17:09:28;52.13;;;25.38;;
3066;SDS011;1544;48.834;9.194;2022-12-18T17:12:03;45.55;;;23.25;;
3066;SDS011;1544;48.834;9.194;2022-12-18T17:14:38;52.33;;;24.38;;
3066;SDS011;1544;48.834;9.194;2022-12-18T17:17:13;48.25;;;24.25;;
3066;SDS011;1544;48.834;9.194;2022-12-18T17:19:57;47.00;;;22.15;;
3066;SDS011;1544;48.834;9.194;2022-12-18T17:22:32;44.15;;;21.15;;
3066;SDS011;1544;48.834;9.194;2022-12-18T17:25:07;47.08;;;23.48;;
3066;SDS011;1544;48.834;9.194;2022-12-18T17:27:42;47.28;;;24.00;;
3066;SDS011;1544;48.834;9.194;2022-12-18T17:30:17;50.63;;;23.40;;
3066;SDS011;1544;48.834;9.194;2022-12-18T17:32:52;49.03;;;24.27;;
3066;SDS011;1544;48.834;9.194;2022-12-18T17:35:27;44.33;;;21.70;;
3066;SDS011;1544;48.834;9.194;2022-12-18T17:38:03;43.53;;;21.85;;
3066;SDS011;1544;48.834;9.194;2022-12-18T17:40:39;43.22;;;23.33;;
3066;SDS011;1544;48.834;9.194;2022-12-18T17:43:19;43.42;;;21.77;;
3066;SDS011;1544;48.834;9.194;2022-12-18T17:46:00;38.80;;;21.13;;
3066;SDS011;1544;48.834;9.194;2022-12-18T17:48:37;41.15;;;21.25;;
3066;SDS011;1544;48.834;9.194;2022-12-18T17:51:13;43.03;;;21.88;;
3066;SDS011;1544;48.834;9.194;2022-12-18T17:53:49;38.78;;;21.20;;
3066;SDS011;1544;48.834;9.194;2022-12-18T17:56:24;44.35;;;23.10;;
3066;SDS011;1544;48.834;9.194;2022-12-18T17:59:00;48.92;;;21.58;;